Time;durP1;ratioP1;P1;durP2;ratioP2;P2;SDS_P1;SDS_P2;PMS_P1;PMS_P2;Temp;Humidity;BMP_temperature;BMP_pressure;BME280_temperature;BME280_humidity;BME280_pressure;Samples;Min_cycle;Max_cycle;Signal;HPM_P1;HPM_P2
2021/07/29 00:02:04;;;;;;;7.65;2.78;;;;;;;;;;5032752;28;20144;-72
2021/07/29 00:04:30;;;;;;;9.15;2.95;;;;;;;;;;5032299;28;20507;-71
2021/07/29 00:06:56;;;;;;;7.68;3.22;;;;;;;;;;5032446;28;20488;-71
2021/07/29 00:09:22;;;;;;;5.18;3.08;;;;;;;;;;5033720;28;20029;-73
2021/07/29 00:11:48;;;;;;;7.13;2.67;;;;;;;;;;5033556;28;20123;-70
2021/07/29 00:14:14;;;;;;;7.72;2.95;;;;;;;;;;5033519;28;20033;-70
2021/07/29 00:16:45;;;;;;;6.03;2.63;;;;;;;;;;5033404;28;20067;-70
2021/07/29 00:19:11;;;;;;;6.25;2.88;;;;;;;;;;5033481;28;20500;-70
2021/07/29 00:21:38;;;;;;;5.22;2.78;;;;;;;;;;5033491;28;20533;-72
2021/07/29 00:24:05;;;;;;;7.93;3.08;;;;;;;;;;5033508;28;20017;-70
2021/07/29 00:26:31;;;;;;;6.68;3.08;;;;;;;;;;5033367;28;20033;-70
2021/07/29 00:28:57;;;;;;;9.00;2.85;;;;;;;;;;5032018;28;20017;-70
2021/07/29 00:31:30;;;;;;;5.93;3.20;;;;;;;;;;5033188;28;20025;-70
2021/07/29 00:33:56;;;;;;;6.47;3.20;;;;;;;;;;5031692;28;20029;-70
2021/07/29 00:36:23;;;;;;;7.85;3.53;;;;;;;;;;5033028;28;20075;-70
2021/07/29 00:38:49;;;;;;;7.47;3.45;;;;;;;;;;5032874;28;20013;-71
2021/07/29 00:41:15;;;;;;;5.63;3.17;;;;;;;;;;5032873;28;20022;-70
2021/07/29 00:43:41;;;;;;;6.00;3.10;;;;;;;;;;5032873;28;20029;-70
2021/07/29 00:46:08;;;;;;;6.03;2.78;;;;;;;;;;5032850;28;20044;-72
2021/07/29 00:48:34;;;;;;;6.20;3.05;;;;;;;;;;5032803;28;20022;-70
2021/07/29 00:51:01;;;;;;;6.65;3.30;;;;;;;;;;5032804;28;20018;-70
2021/07/29 00:53:27;;;;;;;7.15;3.25;;;;;;;;;;5032654;28;20037;-72
2021/07/29 00:55:54;;;;;;;5.60;3.50;;;;;;;;;;5032713;28;20025;-70
2021/07/29 00:58:20;;;;;;;8.48;3.85;;;;;;;;;;5032750;28;20030;-71
2021/07/29 01:00:46;;;;;;;10.90;3.97;;;;;;;;;;5032680;28;20017;-71
2021/07/29 01:03:12;;;;;;;10.73;4.60;;;;;;;;;;5051135;28;20025;-72
2021/07/29 01:05:38;;;;;;;7.32;3.83;;;;;;;;;;5051352;28;20040;-72
2021/07/29 01:08:04;;;;;;;9.77;4.60;;;;;;;;;;5050664;28;20053;-72
2021/07/29 01:10:30;;;;;;;11.90;4.45;;;;;;;;;;5050627;28;20135;-72
2021/07/29 01:12:56;;;;;;;9.65;4.55;;;;;;;;;;5050814;28;20029;-71
2021/07/29 01:15:22;;;;;;;9.07;4.63;;;;;;;;;;5050774;28;20013;-71
2021/07/29 01:17:48;;;;;;;7.75;4.63;;;;;;;;;;5047368;28;20029;-71
2021/07/29 01:20:18;;;;;;;8.93;4.63;;;;;;;;;;5032377;28;20499;-71
2021/07/29 01:22:44;;;;;;;9.98;4.80;;;;;;;;;;5042511;28;20574;-72
2021/07/29 01:25:11;;;;;;;8.00;4.88;;;;;;;;;;5046911;28;20550;-71
2021/07/29 01:27:37;;;;;;;8.95;4.68;;;;;;;;;;5050779;28;20110;-73
2021/07/29 01:30:04;;;;;;;22.73;5.22;;;;;;;;;;5033099;28;20079;-70
2021/07/29 01:32:30;;;;;;;14.45;5.25;;;;;;;;;;5051190;28;20025;-72
2021/07/29 01:34:57;;;;;;;7.47;4.60;;;;;;;;;;5051324;28;20622;-70
2021/07/29 01:37:24;;;;;;;12.48;4.88;;;;;;;;;;5051241;28;20063;-71
2021/07/29 01:39:50;;;;;;;10.55;4.88;;;;;;;;;;5051445;28;20035;-72
2021/07/29 01:42:16;;;;;;;18.80;5.18;;;;;;;;;;5050713;28;20063;-69
2021/07/29 01:44:42;;;;;;;21.02;5.18;;;;;;;;;;5050410;28;20110;-72
2021/07/29 01:47:08;;;;;;;9.70;4.82;;;;;;;;;;5050945;28;20025;-72
2021/07/29 01:49:34;;;;;;;10.73;4.78;;;;;;;;;;5051261;28;20029;-70
2021/07/29 01:52:00;;;;;;;12.63;5.03;;;;;;;;;;5051078;28;20092;-70
2021/07/29 01:54:27;;;;;;;7.38;4.75;;;;;;;;;;5051120;28;20033;-71
2021/07/29 01:56:53;;;;;;;8.80;4.90;;;;;;;;;;5049743;28;20383;-73
2021/07/29 01:59:19;;;;;;;12.52;5.40;;;;;;;;;;5049659;28;20025;-71
2021/07/29 02:01:45;;;;;;;7.88;4.65;;;;;;;;;;5051128;28;20040;-70
2021/07/29 02:04:11;;;;;;;9.68;5.32;;;;;;;;;;5050979;28;20021;-71
2021/07/29 02:06:37;;;;;;;10.25;4.85;;;;;;;;;;5050896;28;20124;-73
2021/07/29 02:09:04;;;;;;;7.80;4.20;;;;;;;;;;5050866;28;20055;-72
2021/07/29 02:11:32;;;;;;;7.50;4.22;;;;;;;;;;5049327;28;20087;-71
2021/07/29 02:13:59;;;;;;;6.85;4.07;;;;;;;;;;5050751;28;20497;-71
2021/07/29 02:16:26;;;;;;;7.63;4.15;;;;;;;;;;5050697;28;20025;-71
2021/07/29 02:18:52;;;;;;;6.18;4.10;;;;;;;;;;5051022;28;20044;-72
2021/07/29 02:21:18;;;;;;;6.97;4.15;;;;;;;;;;5051049;28;20017;-71
2021/07/29 02:23:45;;;;;;;8.73;3.47;;;;;;;;;;5050953;28;20029;-71
2021/07/29 02:26:11;;;;;;;8.43;3.75;;;;;;;;;;5053167;28;20037;-70
2021/07/29 02:28:37;;;;;;;8.05;3.97;;;;;;;;;;5054593;28;20029;-70
2021/07/29 02:31:04;;;;;;;9.23;3.83;;;;;;;;;;5054400;28;20056;-71
2021/07/29 02:33:30;;;;;;;7.88;3.50;;;;;;;;;;5053111;28;20040;-74
2021/07/29 02:35:56;;;;;;;7.32;4.18;;;;;;;;;;5054416;28;20475;-71
2021/07/29 02:38:22;;;;;;;5.93;3.70;;;;;;;;;;5053846;28;20110;-70
2021/07/29 02:40:48;;;;;;;7.20;3.75;;;;;;;;;;5053842;28;20055;-73
2021/07/29 02:43:14;;;;;;;7.43;3.70;;;;;;;;;;5054039;28;20025;-71
2021/07/29 02:45:40;;;;;;;6.78;3.33;;;;;;;;;;5054536;28;20028;-70
2021/07/29 02:48:06;;;;;;;6.07;3.63;;;;;;;;;;5054090;28;20028;-71
2021/07/29 02:50:32;;;;;;;11.38;3.08;;;;;;;;;;5054357;28;20103;-73
2021/07/29 02:52:59;;;;;;;6.85;3.30;;;;;;;;;;5054210;28;20067;-73
2021/07/29 02:55:25;;;;;;;8.07;3.17;;;;;;;;;;5052728;28;20530;-71
2021/07/29 02:57:51;;;;;;;7.40;3.35;;;;;;;;;;5054155;28;20016;-75
2021/07/29 03:00:17;;;;;;;6.95;3.20;;;;;;;;;;5053972;28;20025;-71
2021/07/29 03:02:43;;;;;;;9.23;3.15;;;;;;;;;;5053943;28;20375;-70
2021/07/29 03:05:09;;;;;;;5.63;3.38;;;;;;;;;;5053982;28;20408;-70
2021/07/29 03:07:35;;;;;;;7.15;3.60;;;;;;;;;;5062681;28;20028;-72
2021/07/29 03:10:02;;;;;;;4.22;2.65;;;;;;;;;;5073697;28;20033;-70
2021/07/29 03:12:30;;;;;;;12.55;2.90;;;;;;;;;;5073620;28;20070;-71
2021/07/29 03:14:56;;;;;;;5.78;2.58;;;;;;;;;;5073655;28;20568;-71
2021/07/29 03:17:23;;;;;;;5.13;2.30;;;;;;;;;;5073756;28;20008;-71
2021/07/29 03:19:49;;;;;;;6.32;2.78;;;;;;;;;;5073862;28;20021;-71
2021/07/29 03:22:15;;;;;;;4.80;2.67;;;;;;;;;;5073681;28;20032;-71
2021/07/29 03:24:41;;;;;;;4.90;2.30;;;;;;;;;;5055711;28;20029;-74
2021/07/29 03:27:07;;;;;;;5.32;2.80;;;;;;;;;;5055588;28;20025;-70
2021/07/29 03:29:33;;;;;;;4.50;2.75;;;;;;;;;;5073417;28;20447;-72
2021/07/29 03:31:59;;;;;;;6.22;2.75;;;;;;;;;;5055553;28;20248;-73
2021/07/29 03:34:25;;;;;;;4.85;2.78;;;;;;;;;;5055478;28;20036;-71
2021/07/29 03:36:51;;;;;;;4.65;2.35;;;;;;;;;;5055124;28;20025;-71
2021/07/29 03:39:17;;;;;;;4.13;2.45;;;;;;;;;;5073534;28;20056;-72
2021/07/29 03:41:43;;;;;;;5.75;2.38;;;;;;;;;;5073322;28;20032;-70
2021/07/29 03:44:09;;;;;;;3.97;2.33;;;;;;;;;;5060643;28;20476;-70
2021/07/29 03:46:35;;;;;;;4.90;2.58;;;;;;;;;;5052033;28;20029;-71
2021/07/29 03:49:02;;;;;;;5.30;2.83;;;;;;;;;;5052977;28;20031;-70
2021/07/29 03:51:28;;;;;;;7.30;2.97;;;;;;;;;;5052890;28;20063;-71
2021/07/29 03:53:54;;;;;;;4.43;2.65;;;;;;;;;;5052854;28;20029;-71
2021/07/29 03:56:20;;;;;;;4.95;2.72;;;;;;;;;;5052666;28;20096;-71
2021/07/29 03:58:46;;;;;;;5.82;3.10;;;;;;;;;;5053045;28;20028;-71
2021/07/29 04:01:12;;;;;;;5.72;3.10;;;;;;;;;;5052857;28;20021;-70
2021/07/29 04:03:38;;;;;;;6.55;2.88;;;;;;;;;;5053020;28;20017;-70
2021/07/29 04:06:04;;;;;;;6.82;3.30;;;;;;;;;;5052749;28;20013;-71
2021/07/29 04:08:30;;;;;;;5.22;3.15;;;;;;;;;;5051630;28;20060;-71
2021/07/29 04:10:59;;;;;;;5.50;3.13;;;;;;;;;;5051431;28;20049;-71
2021/07/29 04:13:26;;;;;;;4.80;3.00;;;;;;;;;;5051294;28;20063;-74
2021/07/29 04:16:01;;;;;;;7.80;3.42;;;;;;;;;;5052585;28;20029;-71
2021/07/29 04:18:28;;;;;;;5.85;3.28;;;;;;;;;;5052743;28;20029;-71
2021/07/29 04:20:54;;;;;;;6.30;3.33;;;;;;;;;;5052589;28;20687;-71
2021/07/29 04:23:20;;;;;;;7.32;3.47;;;;;;;;;;5050407;28;20061;-70
2021/07/29 04:25:46;;;;;;;6.03;3.30;;;;;;;;;;5050453;28;20021;-70
2021/07/29 04:28:12;;;;;;;6.10;3.30;;;;;;;;;;5051873;28;20060;-72
2021/07/29 04:30:38;;;;;;;7.85;3.47;;;;;;;;;;5050663;28;20032;-71
2021/07/29 04:33:08;;;;;;;7.25;3.40;;;;;;;;;;5051755;28;20036;-71
2021/07/29 04:35:34;;;;;;;8.07;3.28;;;;;;;;;;5051729;28;20024;-71
2021/07/29 04:38:00;;;;;;;6.82;3.17;;;;;;;;;;5050478;28;20029;-70
2021/07/29 04:40:26;;;;;;;6.35;3.15;;;;;;;;;;5051439;28;20044;-71
2021/07/29 04:42:52;;;;;;;5.75;3.08;;;;;;;;;;5048311;28;20090;-71
2021/07/29 04:45:18;;;;;;;8.35;3.45;;;;;;;;;;5032161;28;20021;-71
2021/07/29 04:47:44;;;;;;;5.18;3.00;;;;;;;;;;5031553;28;20520;-71
2021/07/29 04:50:10;;;;;;;5.15;2.92;;;;;;;;;;5032213;28;20476;-72
2021/07/29 04:52:36;;;;;;;5.38;3.30;;;;;;;;;;5032126;28;20033;-71
2021/07/29 04:55:02;;;;;;;7.13;3.28;;;;;;;;;;5031810;28;20067;-71
2021/07/29 04:57:28;;;;;;;6.28;3.28;;;;;;;;;;5031836;28;20022;-71
2021/07/29 04:59:54;;;;;;;5.55;3.05;;;;;;;;;;5031668;28;20095;-70
2021/07/29 05:02:20;;;;;;;6.72;3.58;;;;;;;;;;5031804;28;20052;-71
2021/07/29 05:04:47;;;;;;;4.65;3.10;;;;;;;;;;5030516;28;20477;-71
2021/07/29 05:07:13;;;;;;;7.75;3.45;;;;;;;;;;5046749;28;20021;-71
2021/07/29 05:09:39;;;;;;;7.00;3.63;;;;;;;;;;5052576;28;20474;-71
2021/07/29 05:12:05;;;;;;;4.47;2.78;;;;;;;;;;5070550;28;20053;-71
2021/07/29 05:14:31;;;;;;;5.15;3.25;;;;;;;;;;5053245;28;20033;-70
2021/07/29 05:17:01;;;;;;;8.98;3.42;;;;;;;;;;5053303;28;20054;-71
2021/07/29 05:19:27;;;;;;;6.50;2.72;;;;;;;;;;5071325;28;20108;-74
2021/07/29 05:21:53;;;;;;;6.20;3.47;;;;;;;;;;5053476;28;20028;-74
2021/07/29 05:24:19;;;;;;;5.45;3.47;;;;;;;;;;5071382;28;20067;-73
2021/07/29 05:26:45;;;;;;;13.13;3.33;;;;;;;;;;5053520;28;20024;-71
2021/07/29 05:29:11;;;;;;;12.18;3.60;;;;;;;;;;5071166;28;20032;-71
2021/07/29 05:31:40;;;;;;;5.60;3.25;;;;;;;;;;5071066;28;20027;-71
2021/07/29 05:34:06;;;;;;;5.03;2.78;;;;;;;;;;5052547;28;20040;-71
2021/07/29 05:36:32;;;;;;;6.93;3.42;;;;;;;;;;5071237;28;20025;-71
2021/07/29 05:38:58;;;;;;;6.15;2.95;;;;;;;;;;5071241;28;20483;-70
2021/07/29 05:41:25;;;;;;;7.15;2.92;;;;;;;;;;5071181;28;20031;-70
2021/07/29 05:43:51;;;;;;;7.28;2.95;;;;;;;;;;5042972;28;20368;-71
2021/07/29 05:46:17;;;;;;;7.15;3.50;;;;;;;;;;5051045;28;20051;-71
2021/07/29 05:48:43;;;;;;;5.18;2.90;;;;;;;;;;5051058;28;20392;-70
2021/07/29 05:51:09;;;;;;;5.97;2.70;;;;;;;;;;5050997;28;20100;-70
2021/07/29 05:53:35;;;;;;;8.25;3.35;;;;;;;;;;5051004;28;20549;-72
2021/07/29 05:56:01;;;;;;;8.48;3.40;;;;;;;;;;5051088;28;20162;-71
2021/07/29 05:58:27;;;;;;;7.07;3.30;;;;;;;;;;5049705;28;20029;-71
2021/07/29 06:00:54;;;;;;;14.23;3.47;;;;;;;;;;5048318;28;20492;-70
2021/07/29 06:03:20;;;;;;;9.90;3.42;;;;;;;;;;5060635;28;20043;-71
2021/07/29 06:05:46;;;;;;;9.65;3.15;;;;;;;;;;5054764;28;20083;-72
2021/07/29 06:08:13;;;;;;;6.22;3.08;;;;;;;;;;5053877;28;20032;-73
2021/07/29 06:10:39;;;;;;;6.35;2.90;;;;;;;;;;5053982;28;20125;-71
2021/07/29 06:13:06;;;;;;;5.50;2.90;;;;;;;;;;5054929;28;20028;-70
2021/07/29 06:15:32;;;;;;;6.40;2.80;;;;;;;;;;5055103;28;20036;-70
2021/07/29 06:18:00;;;;;;;6.28;3.50;;;;;;;;;;5054845;28;20029;-72
2021/07/29 06:20:26;;;;;;;5.38;2.83;;;;;;;;;;5055200;28;20025;-71
2021/07/29 06:22:52;;;;;;;5.75;3.40;;;;;;;;;;5055524;28;20144;-72
2021/07/29 06:25:18;;;;;;;5.97;3.38;;;;;;;;;;5055325;28;20021;-71
2021/07/29 06:27:49;;;;;;;8.82;3.83;;;;;;;;;;5055492;28;20021;-70
2021/07/29 06:30:16;;;;;;;6.38;3.03;;;;;;;;;;5037407;28;20083;-70
2021/07/29 06:32:42;;;;;;;8.48;3.35;;;;;;;;;;5055230;28;20021;-71
2021/07/29 06:35:09;;;;;;;6.28;2.88;;;;;;;;;;5055386;28;20032;-71
2021/07/29 06:37:35;;;;;;;6.78;3.10;;;;;;;;;;5055301;28;20029;-72
2021/07/29 06:40:01;;;;;;;6.25;3.10;;;;;;;;;;5054981;28;20387;-70
2021/07/29 06:42:27;;;;;;;7.13;3.15;;;;;;;;;;5055138;28;20013;-70
2021/07/29 06:44:53;;;;;;;6.28;2.92;;;;;;;;;;5054846;28;20017;-69
2021/07/29 06:47:21;;;;;;;9.13;3.50;;;;;;;;;;5054804;28;20021;-69
2021/07/29 06:49:50;;;;;;;8.48;3.40;;;;;;;;;;5054903;28;20020;-69
2021/07/29 06:52:16;;;;;;;9.82;3.90;;;;;;;;;;5054772;28;20045;-69
2021/07/29 06:54:42;;;;;;;11.60;3.05;;;;;;;;;;5053454;28;20060;-70
2021/07/29 06:57:09;;;;;;;11.00;3.60;;;;;;;;;;5053443;28;20134;-70
2021/07/29 06:59:36;;;;;;;7.90;2.97;;;;;;;;;;5053635;28;20025;-70
2021/07/29 07:02:02;;;;;;;5.65;2.53;;;;;;;;;;5054729;28;20025;-70
2021/07/29 07:04:28;;;;;;;7.25;2.92;;;;;;;;;;5054818;28;20041;-70
2021/07/29 07:06:54;;;;;;;6.03;2.88;;;;;;;;;;5054348;28;20048;-69
2021/07/29 07:09:20;;;;;;;10.43;3.03;;;;;;;;;;5054215;28;20150;-70
2021/07/29 07:11:46;;;;;;;14.73;2.80;;;;;;;;;;5052448;28;20052;-70
2021/07/29 07:14:12;;;;;;;8.27;2.88;;;;;;;;;;5053085;28;20052;-70
2021/07/29 07:16:39;;;;;;;12.77;3.90;;;;;;;;;;5043562;28;20029;-70
2021/07/29 07:19:05;;;;;;;9.25;3.17;;;;;;;;;;5033520;28;20028;-70
2021/07/29 07:21:32;;;;;;;10.00;2.92;;;;;;;;;;5033102;28;20017;-70
2021/07/29 07:23:58;;;;;;;8.20;2.92;;;;;;;;;;5034721;28;20026;-69
2021/07/29 07:26:25;;;;;;;5.35;2.88;;;;;;;;;;5034508;28;20025;-70
2021/07/29 07:28:51;;;;;;;6.32;2.75;;;;;;;;;;5033356;28;20057;-69
2021/07/29 07:31:18;;;;;;;5.18;2.50;;;;;;;;;;5042893;28;20039;-70
2021/07/29 07:33:45;;;;;;;7.50;2.67;;;;;;;;;;5072799;28;20039;-70
2021/07/29 07:36:11;;;;;;;5.18;3.17;;;;;;;;;;5072568;28;20479;-70
2021/07/29 07:38:37;;;;;;;6.03;2.67;;;;;;;;;;5074070;28;20422;-70
2021/07/29 07:41:07;;;;;;;4.95;2.70;;;;;;;;;;5074249;28;20016;-69
2021/07/29 07:43:33;;;;;;;5.82;2.40;;;;;;;;;;5074147;28;20027;-70
2021/07/29 07:46:00;;;;;;;5.10;2.70;;;;;;;;;;5074115;28;20046;-70
2021/07/29 07:48:26;;;;;;;6.05;2.47;;;;;;;;;;5074206;28;20035;-70
2021/07/29 07:50:53;;;;;;;5.53;2.63;;;;;;;;;;5056052;28;20097;-69
2021/07/29 07:53:23;;;;;;;5.53;2.20;;;;;;;;;;5073923;28;20111;-69
2021/07/29 07:55:49;;;;;;;11.52;2.45;;;;;;;;;;5074161;28;20073;-70
2021/07/29 07:58:15;;;;;;;6.70;2.40;;;;;;;;;;5073098;28;20020;-70
2021/07/29 08:00:41;;;;;;;4.43;2.08;;;;;;;;;;5073751;28;20013;-69
2021/07/29 08:03:07;;;;;;;3.92;2.00;;;;;;;;;;5055681;28;20017;-69
2021/07/29 08:05:33;;;;;;;4.80;2.10;;;;;;;;;;5073647;28;20028;-69
2021/07/29 08:08:00;;;;;;;3.90;2.03;;;;;;;;;;5073741;28;20023;-70
2021/07/29 08:10:28;;;;;;;6.38;2.50;;;;;;;;;;5052201;28;20049;-69
2021/07/29 08:12:54;;;;;;;3.72;2.28;;;;;;;;;;5053752;28;20021;-70
2021/07/29 08:15:20;;;;;;;3.38;1.90;;;;;;;;;;5052238;28;20055;-69
2021/07/29 08:17:46;;;;;;;4.43;2.10;;;;;;;;;;5052143;28;20031;-69
2021/07/29 08:20:13;;;;;;;5.40;2.00;;;;;;;;;;5053343;28;20533;-69
2021/07/29 08:22:39;;;;;;;5.13;2.30;;;;;;;;;;5051221;28;20601;-69
2021/07/29 08:25:05;;;;;;;3.63;2.22;;;;;;;;;;5053371;28;20391;-69
2021/07/29 08:27:34;;;;;;;6.05;2.47;;;;;;;;;;5053125;28;20028;-69
2021/07/29 08:30:00;;;;;;;3.58;2.30;;;;;;;;;;5053409;28;20050;-69
2021/07/29 08:32:27;;;;;;;6.30;2.28;;;;;;;;;;5053199;28;20450;-69
2021/07/29 08:34:53;;;;;;;4.50;2.45;;;;;;;;;;5053263;28;20356;-70
2021/07/29 08:37:19;;;;;;;5.45;2.40;;;;;;;;;;5053389;28;20187;-69
2021/07/29 08:39:46;;;;;;;3.85;1.90;;;;;;;;;;5053307;28;20467;-70
2021/07/29 08:42:12;;;;;;;4.13;2.20;;;;;;;;;;5051785;28;20017;-69
2021/07/29 08:44:38;;;;;;;6.88;2.50;;;;;;;;;;5052974;28;20021;-70
2021/07/29 08:47:11;;;;;;;5.05;2.42;;;;;;;;;;5051695;28;20360;-69
2021/07/29 08:49:41;;;;;;;4.78;2.05;;;;;;;;;;5052920;28;20027;-70
2021/07/29 08:52:08;;;;;;;3.55;2.05;;;;;;;;;;5052873;28;20063;-69
2021/07/29 08:54:38;;;;;;;5.28;2.40;;;;;;;;;;5052780;28;20124;-70
2021/07/29 08:57:04;;;;;;;3.58;1.90;;;;;;;;;;5051504;28;20090;-70
2021/07/29 08:59:30;;;;;;;4.03;2.17;;;;;;;;;;5052714;28;20104;-70
2021/07/29 09:01:59;;;;;;;3.90;1.98;;;;;;;;;;5052641;28;20027;-70
2021/07/29 09:04:26;;;;;;;3.90;2.22;;;;;;;;;;5052567;28;20241;-69
2021/07/29 09:06:57;;;;;;;4.05;2.30;;;;;;;;;;5051191;28;20399;-69
2021/07/29 09:09:35;;;;;;;4.82;2.28;;;;;;;;;;5052554;28;20013;-69
2021/07/29 09:12:21;;;;;;;4.95;2.15;;;;;;;;;;5070858;28;20045;-69
2021/07/29 09:14:48;;;;;;;6.03;2.33;;;;;;;;;;5072555;28;20365;-70
2021/07/29 09:17:15;;;;;;;4.00;2.40;;;;;;;;;;5072407;28;20074;-69
2021/07/29 09:19:47;;;;;;;5.57;2.10;;;;;;;;;;5072486;28;20035;-69
2021/07/29 09:22:23;;;;;;;2.80;1.55;;;;;;;;;;5054465;28;20096;-69
2021/07/29 09:25:02;;;;;;;3.60;1.98;;;;;;;;;;5072366;28;20017;-70
2021/07/29 09:27:48;;;;;;;4.72;2.17;;;;;;;;;;5072494;28;20459;-70
2021/07/29 09:30:23;;;;;;;4.85;2.05;;;;;;;;;;5054201;28;20035;-70
2021/07/29 09:32:53;;;;;;;3.45;2.08;;;;;;;;;;5072290;28;20075;-70
2021/07/29 09:35:46;;;;;;;4.85;2.33;;;;;;;;;;5072007;28;20021;-69
2021/07/29 09:38:13;;;;;;;;;;;;;;;;;;5052468;28;20426;-69
2021/07/29 09:40:56;;;;;;;4.07;2.15;;;;;;;;;;5072231;28;20016;-70
2021/07/29 09:43:26;;;;;;;3.90;2.40;;;;;;;;;;5072189;28;20060;-70
2021/07/29 09:45:54;;;;;;;5.18;2.40;;;;;;;;;;5072053;28;20019;-69
2021/07/29 09:48:22;;;;;;;3.60;2.00;;;;;;;;;;5072118;28;20106;-69
2021/07/29 09:50:49;;;;;;;4.55;2.20;;;;;;;;;;5071991;28;20112;-69
2021/07/29 09:53:15;;;;;;;3.97;2.22;;;;;;;;;;5072052;28;20068;-69
2021/07/29 09:55:41;;;;;;;5.20;2.05;;;;;;;;;;5072142;28;20027;-69
2021/07/29 09:58:08;;;;;;;5.30;2.17;;;;;;;;;;5071949;28;20074;-69
2021/07/29 10:00:35;;;;;;;4.75;2.05;;;;;;;;;;5054277;28;20429;-70
2021/07/29 10:03:03;;;;;;;3.72;2.10;;;;;;;;;;5071833;28;20043;-70
2021/07/29 10:05:48;;;;;;;4.65;2.53;;;;;;;;;;5071724;28;20025;-70
2021/07/29 10:08:34;;;;;;;5.97;2.35;;;;;;;;;;5071579;28;20052;-70
2021/07/29 10:11:01;;;;;;;4.32;2.22;;;;;;;;;;5071526;28;20049;-69
2021/07/29 10:13:40;;;;;;;4.05;2.00;;;;;;;;;;5071979;28;20033;-70
2021/07/29 10:16:06;;;;;;;3.65;2.03;;;;;;;;;;5053808;28;20016;-69
2021/07/29 10:18:51;;;;;;;3.47;2.03;;;;;;;;;;5071840;28;20048;-69
2021/07/29 10:21:30;;;;;;;4.63;2.03;;;;;;;;;;5071760;28;20609;-70
2021/07/29 10:23:58;;;;;;;4.82;2.40;;;;;;;;;;5053748;28;20070;-70
2021/07/29 10:26:24;;;;;;;3.53;2.00;;;;;;;;;;5053893;28;20028;-70
2021/07/29 10:28:50;;;;;;;3.50;2.00;;;;;;;;;;5071871;28;20028;-69
2021/07/29 10:31:17;;;;;;;4.80;1.83;;;;;;;;;;5071694;28;20023;-70
2021/07/29 10:33:45;;;;;;;3.67;1.90;;;;;;;;;;5071365;28;20274;-70
2021/07/29 10:36:31;;;;;;;4.03;2.20;;;;;;;;;;5053451;28;20048;-70
2021/07/29 10:39:04;;;;;;;3.83;1.70;;;;;;;;;;5060830;28;20111;-70
2021/07/29 10:41:30;;;;;;;3.65;1.95;;;;;;;;;;5071752;28;20024;-70
2021/07/29 10:43:57;;;;;;;4.20;2.22;;;;;;;;;;5071637;28;20050;-69
2021/07/29 10:46:42;;;;;;;3.42;1.90;;;;;;;;;;5072599;28;20032;-69
2021/07/29 10:49:16;;;;;;;4.82;2.28;;;;;;;;;;5074920;28;20070;-70
2021/07/29 10:52:17;;;;;;;4.22;2.28;;;;;;;;;;5075039;28;20150;-70
2021/07/29 10:54:45;;;;;;;4.68;2.17;;;;;;;;;;4995954;28;20409;-70
2021/07/29 10:57:12;;;;;;;4.18;1.90;;;;;;;;;;5062968;28;20037;-70
2021/07/29 10:59:38;;;;;;;3.65;1.80;;;;;;;;;;5075003;28;20093;-69
2021/07/29 11:02:19;;;;;;;3.97;1.90;;;;;;;;;;5057035;28;20051;-70
2021/07/29 11:04:52;;;;;;;3.92;2.00;;;;;;;;;;5057019;28;20027;-70
2021/07/29 11:07:19;;;;;;;3.72;2.20;;;;;;;;;;5074995;28;20379;-70
2021/07/29 11:09:45;;;;;;;3.00;1.73;;;;;;;;;;5075077;28;20048;-70
2021/07/29 11:12:15;;;;;;;4.13;1.90;;;;;;;;;;5074695;28;20049;-70
2021/07/29 11:14:41;;;;;;;5.57;2.30;;;;;;;;;;5056840;28;20024;-70
2021/07/29 11:17:07;;;;;;;3.67;1.77;;;;;;;;;;5074829;28;20031;-70
2021/07/29 11:19:43;;;;;;;3.45;1.95;;;;;;;;;;5074477;28;20055;-70
2021/07/29 11:22:10;;;;;;;4.43;2.00;;;;;;;;;;5074310;28;20379;-70
2021/07/29 11:24:36;;;;;;;3.20;1.60;;;;;;;;;;5056648;28;20017;-70
2021/07/29 11:27:03;;;;;;;4.75;2.13;;;;;;;;;;5074607;28;20021;-70
2021/07/29 11:29:30;;;;;;;2.92;1.70;;;;;;;;;;5074534;28;20031;-70
2021/07/29 11:31:57;;;;;;;3.47;1.85;;;;;;;;;;5074474;28;20490;-70
2021/07/29 11:34:33;;;;;;;3.88;2.10;;;;;;;;;;5074279;28;20040;-70
2021/07/29 11:36:59;;;;;;;3.42;1.65;;;;;;;;;;5056668;28;20052;-70
2021/07/29 11:39:25;;;;;;;3.78;1.77;;;;;;;;;;5056085;28;20426;-70
2021/07/29 11:41:53;;;;;;;3.63;1.98;;;;;;;;;;5074302;28;20012;-70
2021/07/29 11:44:19;;;;;;;4.75;1.90;;;;;;;;;;5056150;28;20490;-70
2021/07/29 11:46:56;;;;;;;11.35;2.40;;;;;;;;;;5074275;28;20029;-70
2021/07/29 11:49:22;;;;;;;2.90;1.70;;;;;;;;;;5074117;28;20074;-70
2021/07/29 11:52:03;;;;;;;3.15;1.90;;;;;;;;;;5074015;28;20048;-70
2021/07/29 11:54:31;;;;;;;3.38;1.98;;;;;;;;;;5073836;28;20067;-70
2021/07/29 11:56:57;;;;;;;3.70;1.98;;;;;;;;;;5073745;28;20602;-70
2021/07/29 11:59:24;;;;;;;4.70;1.77;;;;;;;;;;5055621;28;20486;-70
2021/07/29 12:01:50;;;;;;;2.88;1.55;;;;;;;;;;5073861;28;20394;-70
2021/07/29 12:04:17;;;;;;;2.92;1.70;;;;;;;;;;5073865;28;20025;-70
2021/07/29 12:06:44;;;;;;;4.43;2.00;;;;;;;;;;5073875;28;20074;-70
2021/07/29 12:09:10;;;;;;;4.05;1.98;;;;;;;;;;5073788;28;20024;-70
2021/07/29 12:11:36;;;;;;;2.97;1.55;;;;;;;;;;5073451;28;20415;-70
2021/07/29 12:14:03;;;;;;;5.50;1.88;;;;;;;;;;5073623;28;20047;-69
2021/07/29 12:16:46;;;;;;;5.07;2.05;;;;;;;;;;5073741;28;20626;-70
2021/07/29 12:19:12;;;;;;;;;;;;;;;;;;5074029;28;20032;-70
2021/07/29 12:21:38;;;;;;;3.65;1.55;;;;;;;;;;5073520;28;19912;-70
2021/07/29 12:24:04;;;;;;;4.55;2.10;;;;;;;;;;5055360;28;20109;-70
2021/07/29 12:26:30;;;;;;;3.45;1.80;;;;;;;;;;5073479;28;20082;-69
2021/07/29 12:28:56;;;;;;;2.70;1.60;;;;;;;;;;5073182;28;20016;-69
2021/07/29 12:31:24;;;;;;;4.03;1.88;;;;;;;;;;5055362;28;20025;-70
2021/07/29 12:33:50;;;;;;;3.72;1.80;;;;;;;;;;5073256;28;20125;-69
2021/07/29 12:36:17;;;;;;;2.78;1.40;;;;;;;;;;5055164;28;20372;-69
2021/07/29 12:38:43;;;;;;;3.00;1.65;;;;;;;;;;5073130;28;20040;-70
2021/07/29 12:41:09;;;;;;;3.55;1.70;;;;;;;;;;5055303;28;20489;-70
2021/07/29 12:43:36;;;;;;;3.05;1.60;;;;;;;;;;5072915;28;20035;-70
2021/07/29 12:46:04;;;;;;;3.35;1.80;;;;;;;;;;5055055;28;20119;-70
2021/07/29 12:48:31;;;;;;;5.22;1.95;;;;;;;;;;5072935;28;20016;-69
2021/07/29 12:50:57;;;;;;;3.80;1.58;;;;;;;;;;5054850;28;20013;-69
2021/07/29 12:53:24;;;;;;;4.07;1.77;;;;;;;;;;5072795;28;20087;-69
2021/07/29 12:55:51;;;;;;;3.45;1.83;;;;;;;;;;5072639;28;20108;-70
2021/07/29 12:58:19;;;;;;;2.92;1.63;;;;;;;;;;5055114;28;20055;-70
2021/07/29 13:00:46;;;;;;;2.75;1.50;;;;;;;;;;5072955;28;20025;-70
2021/07/29 13:03:19;;;;;;;3.72;1.73;;;;;;;;;;5072797;28;20471;-70
2021/07/29 13:05:45;;;;;;;2.80;1.60;;;;;;;;;;5072459;28;20108;-70
2021/07/29 13:08:11;;;;;;;3.28;1.67;;;;;;;;;;5072434;28;20063;-70
2021/07/29 13:10:38;;;;;;;3.47;1.95;;;;;;;;;;5071978;28;20060;-69
2021/07/29 13:13:04;;;;;;;3.35;2.00;;;;;;;;;;5054566;28;20033;-69
2021/07/29 13:15:30;;;;;;;3.15;1.77;;;;;;;;;;5072852;28;20032;-69
2021/07/29 13:17:56;;;;;;;5.45;1.90;;;;;;;;;;5072877;28;20099;-70
2021/07/29 13:20:22;;;;;;;3.63;1.90;;;;;;;;;;5054515;28;20081;-70
2021/07/29 13:22:48;;;;;;;3.33;1.55;;;;;;;;;;5072465;28;20028;-69
2021/07/29 13:25:16;;;;;;;3.58;1.98;;;;;;;;;;5054067;28;20021;-70
2021/07/29 13:27:42;;;;;;;3.30;1.70;;;;;;;;;;5072352;28;20295;-69
2021/07/29 13:30:08;;;;;;;4.38;1.88;;;;;;;;;;5072526;28;20017;-70
2021/07/29 13:32:35;;;;;;;5.03;2.00;;;;;;;;;;5072046;28;20492;-70
2021/07/29 13:35:01;;;;;;;3.65;1.75;;;;;;;;;;5072193;28;20029;-70
2021/07/29 13:37:27;;;;;;;2.95;1.60;;;;;;;;;;5072289;28;20540;-69
2021/07/29 13:39:53;;;;;;;3.80;1.70;;;;;;;;;;5072351;28;20024;-70
2021/07/29 13:42:19;;;;;;;4.03;1.65;;;;;;;;;;5054436;28;20481;-69
2021/07/29 13:44:54;;;;;;;3.28;1.70;;;;;;;;;;5072100;28;20094;-70
2021/07/29 13:47:20;;;;;;;5.20;1.80;;;;;;;;;;5072086;28;20017;-70
2021/07/29 13:49:46;;;;;;;3.85;1.95;;;;;;;;;;5072122;28;20035;-70
2021/07/29 13:52:13;;;;;;;3.67;1.60;;;;;;;;;;5053960;28;20056;-69
2021/07/29 13:54:39;;;;;;;5.80;1.92;;;;;;;;;;5053969;28;20032;-70
2021/07/29 13:57:05;;;;;;;3.42;1.92;;;;;;;;;;5054012;28;20024;-70
2021/07/29 13:59:31;;;;;;;3.47;1.60;;;;;;;;;;5071796;28;20055;-70
2021/07/29 14:01:57;;;;;;;3.10;1.80;;;;;;;;;;5071881;28;20025;-71
2021/07/29 14:04:23;;;;;;;4.68;2.05;;;;;;;;;;5071897;28;20104;-70
2021/07/29 14:06:49;;;;;;;2.97;1.67;;;;;;;;;;5072220;28;20024;-69
2021/07/29 14:09:15;;;;;;;3.50;1.83;;;;;;;;;;5071982;28;20024;-70
2021/07/29 14:11:42;;;;;;;3.70;1.70;;;;;;;;;;5071725;28;20052;-70
2021/07/29 14:14:08;;;;;;;3.70;1.80;;;;;;;;;;5071901;28;20036;-70
2021/07/29 14:16:34;;;;;;;3.80;2.10;;;;;;;;;;5053927;28;20387;-70
2021/07/29 14:19:03;;;;;;;3.97;2.08;;;;;;;;;;5072104;28;20024;-70
2021/07/29 14:22:51;;;;;;;3.03;1.77;;;;;;;;;;5055177;28;20070;-70
2021/07/29 14:24:17;;;;;;;3.67;1.60;;;;;;;;;;5075483;28;20086;-70
2021/07/29 14:26:44;;;;;;;3.75;1.90;;;;;;;;;;5075428;28;20024;-70
2021/07/29 14:29:10;;;;;;;3.13;1.67;;;;;;;;;;5075326;28;20040;-69
2021/07/29 14:31:36;;;;;;;3.72;1.75;;;;;;;;;;5057530;28;20097;-70
2021/07/29 14:34:02;;;;;;;3.33;1.80;;;;;;;;;;5075300;28;20067;-70
2021/07/29 14:36:28;;;;;;;3.00;1.60;;;;;;;;;;5075538;28;20021;-70
2021/07/29 14:38:54;;;;;;;3.75;1.90;;;;;;;;;;5075446;28;20238;-70
2021/07/29 14:41:20;;;;;;;4.05;2.30;;;;;;;;;;5057415;28;20035;-70
2021/07/29 14:43:47;;;;;;;4.25;1.85;;;;;;;;;;5057415;28;20062;-70
2021/07/29 14:51:40;;;;;;;5.68;2.22;;;;;;;;;;5074970;28;20016;-70